sensor_id;sensor_type;location;lat;lon;timestamp;temperature;humidity
10344;DHT22;5217;43.960;10.954;2023-04-06T00:00:03;14.00;45.00
10344;DHT22;5217;43.960;10.954;2023-04-06T00:02:34;14.00;45.10
10344;DHT22;5217;43.960;10.954;2023-04-06T00:05:03;13.90;45.40
10344;DHT22;5217;43.960;10.954;2023-04-06T00:07:33;13.90;45.80
10344;DHT22;5217;43.960;10.954;2023-04-06T00:10:03;13.90;46.10
10344;DHT22;5217;43.960;10.954;2023-04-06T00:12:32;13.80;46.30
10344;DHT22;5217;43.960;10.954;2023-04-06T00:15:02;13.80;46.50
10344;DHT22;5217;43.960;10.954;2023-04-06T00:17:32;13.70;46.50
10344;DHT22;5217;43.960;10.954;2023-04-06T00:20:01;13.70;46.20
10344;DHT22;5217;43.960;10.954;2023-04-06T00:22:29;13.70;46.00
10344;DHT22;5217;43.960;10.954;2023-04-06T00:24:58;13.70;46.30
10344;DHT22;5217;43.960;10.954;2023-04-06T00:27:26;13.70;46.40
10344;DHT22;5217;43.960;10.954;2023-04-06T00:29:55;13.70;46.40
10344;DHT22;5217;43.960;10.954;2023-04-06T00:32:25;13.70;46.30
10344;DHT22;5217;43.960;10.954;2023-04-06T00:34:54;13.60;46.20
10344;DHT22;5217;43.960;10.954;2023-04-06T00:37:23;13.60;46.30
10344;DHT22;5217;43.960;10.954;2023-04-06T00:39:51;13.60;46.20
10344;DHT22;5217;43.960;10.954;2023-04-06T00:42:21;13.50;46.20
10344;DHT22;5217;43.960;10.954;2023-04-06T00:44:53;13.50;46.40
10344;DHT22;5217;43.960;10.954;2023-04-06T00:47:22;13.50;46.40
10344;DHT22;5217;43.960;10.954;2023-04-06T00:49:53;13.50;46.10
10344;DHT22;5217;43.960;10.954;2023-04-06T00:52:22;13.50;46.00
10344;DHT22;5217;43.960;10.954;2023-04-06T00:54:51;13.50;45.90
10344;DHT22;5217;43.960;10.954;2023-04-06T00:57:19;13.50;45.60
10344;DHT22;5217;43.960;10.954;2023-04-06T00:59:48;13.50;45.50
10344;DHT22;5217;43.960;10.954;2023-04-06T01:02:16;13.50;45.50
10344;DHT22;5217;43.960;10.954;2023-04-06T01:04:45;13.50;45.40
10344;DHT22;5217;43.960;10.954;2023-04-06T01:07:14;13.40;45.40
10344;DHT22;5217;43.960;10.954;2023-04-06T01:09:43;13.50;45.60
10344;DHT22;5217;43.960;10.954;2023-04-06T01:12:11;13.50;45.70
10344;DHT22;5217;43.960;10.954;2023-04-06T01:14:40;13.40;46.10
10344;DHT22;5217;43.960;10.954;2023-04-06T01:17:08;13.40;46.40
10344;DHT22;5217;43.960;10.954;2023-04-06T01:19:37;13.50;46.90
10344;DHT22;5217;43.960;10.954;2023-04-06T01:22:07;13.40;47.00
10344;DHT22;5217;43.960;10.954;2023-04-06T01:24:37;13.40;47.30
10344;DHT22;5217;43.960;10.954;2023-04-06T01:27:05;13.40;47.50
10344;DHT22;5217;43.960;10.954;2023-04-06T01:29:34;13.30;47.70
10344;DHT22;5217;43.960;10.954;2023-04-06T01:32:03;13.30;47.60
10344;DHT22;5217;43.960;10.954;2023-04-06T01:34:32;13.30;47.40
10344;DHT22;5217;43.960;10.954;2023-04-06T01:37:01;13.20;47.20
10344;DHT22;5217;43.960;10.954;2023-04-06T01:39:30;13.20;47.20
10344;DHT22;5217;43.960;10.954;2023-04-06T01:42:00;13.20;47.00
10344;DHT22;5217;43.960;10.954;2023-04-06T01:44:29;13.20;47.50
10344;DHT22;5217;43.960;10.954;2023-04-06T01:46:58;13.20;48.00
10344;DHT22;5217;43.960;10.954;2023-04-06T01:49:26;13.10;48.10
10344;DHT22;5217;43.960;10.954;2023-04-06T01:51:55;13.10;48.20
10344;DHT22;5217;43.960;10.954;2023-04-06T01:54:24;13.10;48.40
10344;DHT22;5217;43.960;10.954;2023-04-06T01:56:53;13.00;48.20
10344;DHT22;5217;43.960;10.954;2023-04-06T01:59:23;13.00;48.40
10344;DHT22;5217;43.960;10.954;2023-04-06T02:01:52;13.00;48.60
10344;DHT22;5217;43.960;10.954;2023-04-06T02:04:21;13.00;48.70
10344;DHT22;5217;43.960;10.954;2023-04-06T02:06:49;12.90;48.50
10344;DHT22;5217;43.960;10.954;2023-04-06T02:09:18;12.90;48.60
10344;DHT22;5217;43.960;10.954;2023-04-06T02:11:47;12.90;48.50
10344;DHT22;5217;43.960;10.954;2023-04-06T02:14:16;12.90;48.50
10344;DHT22;5217;43.960;10.954;2023-04-06T02:16:46;12.90;48.20
10344;DHT22;5217;43.960;10.954;2023-04-06T02:19:14;12.80;47.80
10344;DHT22;5217;43.960;10.954;2023-04-06T02:21:43;12.80;47.90
10344;DHT22;5217;43.960;10.954;2023-04-06T02:24:12;12.80;48.60
10344;DHT22;5217;43.960;10.954;2023-04-06T02:26:41;12.80;49.00
10344;DHT22;5217;43.960;10.954;2023-04-06T02:29:09;12.80;49.10
10344;DHT22;5217;43.960;10.954;2023-04-06T02:31:38;12.70;49.10
10344;DHT22;5217;43.960;10.954;2023-04-06T02:34:08;12.70;48.50
10344;DHT22;5217;43.960;10.954;2023-04-06T02:36:39;12.70;48.50
10344;DHT22;5217;43.960;10.954;2023-04-06T02:39:07;12.70;48.50
10344;DHT22;5217;43.960;10.954;2023-04-06T02:41:37;12.60;48.80
10344;DHT22;5217;43.960;10.954;2023-04-06T02:44:06;12.60;48.90
10344;DHT22;5217;43.960;10.954;2023-04-06T02:46:35;12.60;48.80
10344;DHT22;5217;43.960;10.954;2023-04-06T02:49:04;12.60;48.50
10344;DHT22;5217;43.960;10.954;2023-04-06T02:51:35;12.60;48.60
10344;DHT22;5217;43.960;10.954;2023-04-06T02:54:04;12.60;48.70
10344;DHT22;5217;43.960;10.954;2023-04-06T02:56:32;12.60;48.70
10344;DHT22;5217;43.960;10.954;2023-04-06T02:59:01;12.50;48.90
10344;DHT22;5217;43.960;10.954;2023-04-06T03:01:29;12.50;49.00
10344;DHT22;5217;43.960;10.954;2023-04-06T03:03:58;12.50;49.10
10344;DHT22;5217;43.960;10.954;2023-04-06T03:06:27;12.50;49.30
10344;DHT22;5217;43.960;10.954;2023-04-06T03:08:56;12.50;49.50
10344;DHT22;5217;43.960;10.954;2023-04-06T03:11:25;12.50;49.50
10344;DHT22;5217;43.960;10.954;2023-04-06T03:13:53;12.50;49.70
10344;DHT22;5217;43.960;10.954;2023-04-06T03:16:22;12.40;49.70
10344;DHT22;5217;43.960;10.954;2023-04-06T03:18:50;12.40;49.70
10344;DHT22;5217;43.960;10.954;2023-04-06T03:21:19;12.40;49.90
10344;DHT22;5217;43.960;10.954;2023-04-06T03:23:47;12.40;50.00
10344;DHT22;5217;43.960;10.954;2023-04-06T03:26:19;12.40;50.10
10344;DHT22;5217;43.960;10.954;2023-04-06T03:28:49;12.40;50.00
10344;DHT22;5217;43.960;10.954;2023-04-06T03:31:17;12.30;49.80
10344;DHT22;5217;43.960;10.954;2023-04-06T03:33:46;12.30;49.90
10344;DHT22;5217;43.960;10.954;2023-04-06T03:36:14;12.30;49.80
10344;DHT22;5217;43.960;10.954;2023-04-06T03:38:42;12.30;49.60
10344;DHT22;5217;43.960;10.954;2023-04-06T03:41:11;12.20;49.70
10344;DHT22;5217;43.960;10.954;2023-04-06T03:43:41;12.20;49.80
10344;DHT22;5217;43.960;10.954;2023-04-06T03:46:09;12.20;50.10
10344;DHT22;5217;43.960;10.954;2023-04-06T03:48:38;12.20;50.10
10344;DHT22;5217;43.960;10.954;2023-04-06T03:51:06;12.20;49.90
10344;DHT22;5217;43.960;10.954;2023-04-06T03:53:35;12.20;49.70
10344;DHT22;5217;43.960;10.954;2023-04-06T03:56:05;12.20;49.60
10344;DHT22;5217;43.960;10.954;2023-04-06T03:58:33;12.20;49.70
10344;DHT22;5217;43.960;10.954;2023-04-06T04:01:03;12.20;49.90
10344;DHT22;5217;43.960;10.954;2023-04-06T04:03:32;12.10;50.00
10344;DHT22;5217;43.960;10.954;2023-04-06T04:06:00;12.10;50.00
10344;DHT22;5217;43.960;10.954;2023-04-06T04:08:29;12.10;50.00
10344;DHT22;5217;43.960;10.954;2023-04-06T04:10:57;12.10;50.10
10344;DHT22;5217;43.960;10.954;2023-04-06T04:13:26;12.10;50.10
10344;DHT22;5217;43.960;10.954;2023-04-06T04:15:54;12.10;50.00
10344;DHT22;5217;43.960;10.954;2023-04-06T04:18:24;12.10;49.80
10344;DHT22;5217;43.960;10.954;2023-04-06T04:20:53;12.10;49.90
10344;DHT22;5217;43.960;10.954;2023-04-06T04:23:21;12.10;49.90
10344;DHT22;5217;43.960;10.954;2023-04-06T04:25:50;12.10;49.90
10344;DHT22;5217;43.960;10.954;2023-04-06T04:28:18;12.10;50.00
10344;DHT22;5217;43.960;10.954;2023-04-06T04:30:47;12.10;50.10
10344;DHT22;5217;43.960;10.954;2023-04-06T04:33:15;12.00;50.00
10344;DHT22;5217;43.960;10.954;2023-04-06T04:35:46;12.10;50.00
10344;DHT22;5217;43.960;10.954;2023-04-06T04:38:15;12.00;49.90
10344;DHT22;5217;43.960;10.954;2023-04-06T04:40:43;12.00;49.90
10344;DHT22;5217;43.960;10.954;2023-04-06T04:43:12;12.00;49.90
10344;DHT22;5217;43.960;10.954;2023-04-06T04:45:40;12.00;50.00
10344;DHT22;5217;43.960;10.954;2023-04-06T04:48:08;12.00;50.00
10344;DHT22;5217;43.960;10.954;2023-04-06T04:50:37;11.90;50.10
10344;DHT22;5217;43.960;10.954;2023-04-06T04:53:07;12.00;50.20
10344;DHT22;5217;43.960;10.954;2023-04-06T04:55:35;12.00;50.20
10344;DHT22;5217;43.960;10.954;2023-04-06T04:58:04;12.00;50.30
10344;DHT22;5217;43.960;10.954;2023-04-06T05:00:32;12.00;50.40
10344;DHT22;5217;43.960;10.954;2023-04-06T05:03:01;12.00;50.40
10344;DHT22;5217;43.960;10.954;2023-04-06T05:05:29;11.90;50.20
10344;DHT22;5217;43.960;10.954;2023-04-06T05:07:58;12.00;50.30
10344;DHT22;5217;43.960;10.954;2023-04-06T05:10:27;12.00;50.50
10344;DHT22;5217;43.960;10.954;2023-04-06T05:12:56;12.00;50.50
10344;DHT22;5217;43.960;10.954;2023-04-06T05:15:25;12.00;50.60
10344;DHT22;5217;43.960;10.954;2023-04-06T05:17:53;11.90;50.40
10344;DHT22;5217;43.960;10.954;2023-04-06T05:20:22;11.90;50.60
10344;DHT22;5217;43.960;10.954;2023-04-06T05:22:51;12.00;50.80
10344;DHT22;5217;43.960;10.954;2023-04-06T05:25:19;12.00;50.90
10344;DHT22;5217;43.960;10.954;2023-04-06T05:27:49;12.00;51.10
10344;DHT22;5217;43.960;10.954;2023-04-06T05:30:18;12.00;51.20
10344;DHT22;5217;43.960;10.954;2023-04-06T05:32:48;12.00;51.30
10344;DHT22;5217;43.960;10.954;2023-04-06T05:35:16;12.00;51.20
10344;DHT22;5217;43.960;10.954;2023-04-06T05:37:45;11.90;51.20
10344;DHT22;5217;43.960;10.954;2023-04-06T05:40:14;11.90;51.30
10344;DHT22;5217;43.960;10.954;2023-04-06T05:42:43;12.00;51.70
10344;DHT22;5217;43.960;10.954;2023-04-06T05:45:13;11.90;51.80
10344;DHT22;5217;43.960;10.954;2023-04-06T05:47:44;11.90;52.10
10344;DHT22;5217;43.960;10.954;2023-04-06T05:50:13;11.90;52.60
10344;DHT22;5217;43.960;10.954;2023-04-06T05:52:42;11.80;52.70
10344;DHT22;5217;43.960;10.954;2023-04-06T05:55:13;11.80;52.80
10344;DHT22;5217;43.960;10.954;2023-04-06T05:57:41;11.80;52.90
10344;DHT22;5217;43.960;10.954;2023-04-06T06:00:11;11.80;52.80
10344;DHT22;5217;43.960;10.954;2023-04-06T06:02:41;11.80;52.90
10344;DHT22;5217;43.960;10.954;2023-04-06T06:05:10;11.80;52.90
10344;DHT22;5217;43.960;10.954;2023-04-06T06:07:38;11.80;53.30
10344;DHT22;5217;43.960;10.954;2023-04-06T06:10:08;11.80;53.60
10344;DHT22;5217;43.960;10.954;2023-04-06T06:12:37;11.80;54.00
10344;DHT22;5217;43.960;10.954;2023-04-06T06:15:06;11.80;54.10
10344;DHT22;5217;43.960;10.954;2023-04-06T06:17:35;11.80;54.10
10344;DHT22;5217;43.960;10.954;2023-04-06T06:20:07;11.80;54.60
10344;DHT22;5217;43.960;10.954;2023-04-06T06:22:36;11.80;54.90
10344;DHT22;5217;43.960;10.954;2023-04-06T06:25:05;11.70;54.80
10344;DHT22;5217;43.960;10.954;2023-04-06T06:27:33;11.80;55.00
10344;DHT22;5217;43.960;10.954;2023-04-06T06:30:03;11.80;53.90
10344;DHT22;5217;43.960;10.954;2023-04-06T06:32:32;11.80;53.80
10344;DHT22;5217;43.960;10.954;2023-04-06T06:35:00;11.80;53.30
10344;DHT22;5217;43.960;10.954;2023-04-06T06:37:31;11.80;53.60
10344;DHT22;5217;43.960;10.954;2023-04-06T06:39:59;11.90;53.20
10344;DHT22;5217;43.960;10.954;2023-04-06T06:42:28;11.90;52.90
10344;DHT22;5217;43.960;10.954;2023-04-06T06:44:57;11.90;52.20
10344;DHT22;5217;43.960;10.954;2023-04-06T06:47:25;12.00;51.50
10344;DHT22;5217;43.960;10.954;2023-04-06T06:49:54;12.00;50.60
10344;DHT22;5217;43.960;10.954;2023-04-06T06:52:22;12.00;49.40
10344;DHT22;5217;43.960;10.954;2023-04-06T06:54:52;12.10;49.50
10344;DHT22;5217;43.960;10.954;2023-04-06T06:57:23;12.10;49.50
10344;DHT22;5217;43.960;10.954;2023-04-06T06:59:52;12.20;49.80
10344;DHT22;5217;43.960;10.954;2023-04-06T07:02:20;12.20;49.70
10344;DHT22;5217;43.960;10.954;2023-04-06T07:04:49;12.30;49.30
10344;DHT22;5217;43.960;10.954;2023-04-06T07:07:17;12.30;49.10
10344;DHT22;5217;43.960;10.954;2023-04-06T07:09:46;12.30;49.40
10344;DHT22;5217;43.960;10.954;2023-04-06T07:12:16;12.30;49.00
10344;DHT22;5217;43.960;10.954;2023-04-06T07:14:45;12.40;49.10
10344;DHT22;5217;43.960;10.954;2023-04-06T07:17:13;12.40;49.70
10344;DHT22;5217;43.960;10.954;2023-04-06T07:19:42;12.40;50.00
10344;DHT22;5217;43.960;10.954;2023-04-06T07:22:11;12.40;49.90
10344;DHT22;5217;43.960;10.954;2023-04-06T07:24:39;12.40;50.00
10344;DHT22;5217;43.960;10.954;2023-04-06T07:27:08;12.40;50.40
10344;DHT22;5217;43.960;10.954;2023-04-06T07:29:38;12.40;50.50
10344;DHT22;5217;43.960;10.954;2023-04-06T07:32:06;12.40;50.60
10344;DHT22;5217;43.960;10.954;2023-04-06T07:34:35;12.50;50.70
10344;DHT22;5217;43.960;10.954;2023-04-06T07:37:04;12.50;50.10
10344;DHT22;5217;43.960;10.954;2023-04-06T07:39:33;12.60;50.20
10344;DHT22;5217;43.960;10.954;2023-04-06T07:42:02;12.60;50.50
10344;DHT22;5217;43.960;10.954;2023-04-06T07:44:31;12.70;51.10
10344;DHT22;5217;43.960;10.954;2023-04-06T07:47:01;12.70;50.60
10344;DHT22;5217;43.960;10.954;2023-04-06T07:49:29;12.70;50.10
10344;DHT22;5217;43.960;10.954;2023-04-06T07:51:59;12.80;50.40
10344;DHT22;5217;43.960;10.954;2023-04-06T07:54:29;12.80;50.60
10344;DHT22;5217;43.960;10.954;2023-04-06T07:56:58;12.80;49.70
10344;DHT22;5217;43.960;10.954;2023-04-06T07:59:26;12.80;50.20
10344;DHT22;5217;43.960;10.954;2023-04-06T08:01:55;12.90;49.50
10344;DHT22;5217;43.960;10.954;2023-04-06T08:04:25;12.90;49.00
10344;DHT22;5217;43.960;10.954;2023-04-06T08:06:53;12.90;49.20
10344;DHT22;5217;43.960;10.954;2023-04-06T08:09:22;13.00;49.70
10344;DHT22;5217;43.960;10.954;2023-04-06T08:11:50;13.00;50.00
10344;DHT22;5217;43.960;10.954;2023-04-06T08:14:18;13.00;49.80
10344;DHT22;5217;43.960;10.954;2023-04-06T08:16:47;13.10;49.70
10344;DHT22;5217;43.960;10.954;2023-04-06T08:19:15;13.10;50.00
10344;DHT22;5217;43.960;10.954;2023-04-06T08:21:47;13.20;49.80
10344;DHT22;5217;43.960;10.954;2023-04-06T08:24:15;13.20;50.10
10344;DHT22;5217;43.960;10.954;2023-04-06T08:26:44;13.20;50.20
10344;DHT22;5217;43.960;10.954;2023-04-06T08:29:12;13.20;50.10
10344;DHT22;5217;43.960;10.954;2023-04-06T08:31:42;13.30;50.20
10344;DHT22;5217;43.960;10.954;2023-04-06T08:34:11;13.30;50.30
10344;DHT22;5217;43.960;10.954;2023-04-06T08:36:41;13.30;51.20
10344;DHT22;5217;43.960;10.954;2023-04-06T08:39:11;13.30;49.10
10344;DHT22;5217;43.960;10.954;2023-04-06T08:41:41;13.40;49.60
10344;DHT22;5217;43.960;10.954;2023-04-06T08:44:11;13.40;49.80
10344;DHT22;5217;43.960;10.954;2023-04-06T08:46:39;13.40;49.10
10344;DHT22;5217;43.960;10.954;2023-04-06T08:49:08;13.40;49.10
10344;DHT22;5217;43.960;10.954;2023-04-06T08:51:37;13.40;48.90
10344;DHT22;5217;43.960;10.954;2023-04-06T08:54:06;13.40;48.70
10344;DHT22;5217;43.960;10.954;2023-04-06T08:56:38;13.50;48.30
10344;DHT22;5217;43.960;10.954;2023-04-06T08:59:07;13.50;47.80
10344;DHT22;5217;43.960;10.954;2023-04-06T09:01:39;13.50;48.10
10344;DHT22;5217;43.960;10.954;2023-04-06T09:04:09;13.60;48.80
10344;DHT22;5217;43.960;10.954;2023-04-06T09:06:40;13.60;48.70
10344;DHT22;5217;43.960;10.954;2023-04-06T09:09:08;13.60;48.60
10344;DHT22;5217;43.960;10.954;2023-04-06T09:11:46;13.70;48.80
10344;DHT22;5217;43.960;10.954;2023-04-06T09:14:15;13.80;49.10
10344;DHT22;5217;43.960;10.954;2023-04-06T09:16:45;13.80;48.80
10344;DHT22;5217;43.960;10.954;2023-04-06T09:19:14;13.80;48.70
10344;DHT22;5217;43.960;10.954;2023-04-06T09:21:43;13.90;48.20
10344;DHT22;5217;43.960;10.954;2023-04-06T09:24:11;13.90;47.70
10344;DHT22;5217;43.960;10.954;2023-04-06T09:26:47;13.90;48.10
10344;DHT22;5217;43.960;10.954;2023-04-06T09:29:22;13.90;48.50
10344;DHT22;5217;43.960;10.954;2023-04-06T09:31:51;14.00;48.90
10344;DHT22;5217;43.960;10.954;2023-04-06T09:34:23;14.00;49.20
10344;DHT22;5217;43.960;10.954;2023-04-06T09:36:51;14.00;48.70
10344;DHT22;5217;43.960;10.954;2023-04-06T09:39:21;14.10;49.00
10344;DHT22;5217;43.960;10.954;2023-04-06T09:41:52;14.10;49.70
10344;DHT22;5217;43.960;10.954;2023-04-06T09:44:21;14.10;49.10
10344;DHT22;5217;43.960;10.954;2023-04-06T09:46:53;14.20;49.10
10344;DHT22;5217;43.960;10.954;2023-04-06T09:49:28;14.20;49.60
10344;DHT22;5217;43.960;10.954;2023-04-06T09:52:00;14.30;49.80
10344;DHT22;5217;43.960;10.954;2023-04-06T09:54:30;14.40;49.90
10344;DHT22;5217;43.960;10.954;2023-04-06T09:57:07;14.50;51.10
10344;DHT22;5217;43.960;10.954;2023-04-06T09:59:48;14.50;51.70
10344;DHT22;5217;43.960;10.954;2023-04-06T10:02:29;14.50;50.50
10344;DHT22;5217;43.960;10.954;2023-04-06T10:05:05;14.50;50.00
10344;DHT22;5217;43.960;10.954;2023-04-06T10:07:35;14.60;50.10
10344;DHT22;5217;43.960;10.954;2023-04-06T10:10:22;14.60;50.30
10344;DHT22;5217;43.960;10.954;2023-04-06T10:12:53;14.60;50.10
10344;DHT22;5217;43.960;10.954;2023-04-06T10:15:22;14.60;50.10
10344;DHT22;5217;43.960;10.954;2023-04-06T10:17:51;14.70;49.50
10344;DHT22;5217;43.960;10.954;2023-04-06T10:20:25;14.70;49.20
10344;DHT22;5217;43.960;10.954;2023-04-06T10:23:01;14.70;49.60
10344;DHT22;5217;43.960;10.954;2023-04-06T10:25:34;14.80;49.90
10344;DHT22;5217;43.960;10.954;2023-04-06T10:28:08;14.80;49.40
10344;DHT22;5217;43.960;10.954;2023-04-06T10:30:42;14.90;49.00
10344;DHT22;5217;43.960;10.954;2023-04-06T10:33:15;14.90;49.30
10344;DHT22;5217;43.960;10.954;2023-04-06T10:35:44;15.00;49.60
10344;DHT22;5217;43.960;10.954;2023-04-06T10:38:13;15.10;49.70
10344;DHT22;5217;43.960;10.954;2023-04-06T10:40:42;15.10;49.60
10344;DHT22;5217;43.960;10.954;2023-04-06T10:43:18;15.10;48.50
10344;DHT22;5217;43.960;10.954;2023-04-06T10:45:55;15.20;48.90
10344;DHT22;5217;43.960;10.954;2023-04-06T10:48:23;15.20;49.20
10344;DHT22;5217;43.960;10.954;2023-04-06T10:50:53;15.30;47.70
10344;DHT22;5217;43.960;10.954;2023-04-06T10:53:22;15.30;48.00
10344;DHT22;5217;43.960;10.954;2023-04-06T10:55:51;15.40;48.60
10344;DHT22;5217;43.960;10.954;2023-04-06T10:58:24;15.50;49.30
10344;DHT22;5217;43.960;10.954;2023-04-06T11:00:54;15.50;48.30
10344;DHT22;5217;43.960;10.954;2023-04-06T11:03:23;15.60;48.60
10344;DHT22;5217;43.960;10.954;2023-04-06T11:05:51;15.60;48.90
10344;DHT22;5217;43.960;10.954;2023-04-06T11:08:24;15.70;48.30
10344;DHT22;5217;43.960;10.954;2023-04-06T11:11:04;15.80;48.30
10344;DHT22;5217;43.960;10.954;2023-04-06T11:13:40;15.90;48.30
10344;DHT22;5217;43.960;10.954;2023-04-06T11:16:15;16.10;48.60
10344;DHT22;5217;43.960;10.954;2023-04-06T11:18:53;16.30;49.00
10344;DHT22;5217;43.960;10.954;2023-04-06T11:21:33;16.60;47.90
10344;DHT22;5217;43.960;10.954;2023-04-06T11:24:06;16.90;47.20
10344;DHT22;5217;43.960;10.954;2023-04-06T11:26:42;17.20;48.10
10344;DHT22;5217;43.960;10.954;2023-04-06T11:29:14;17.50;48.60
10344;DHT22;5217;43.960;10.954;2023-04-06T11:31:46;17.80;48.80
10344;DHT22;5217;43.960;10.954;2023-04-06T11:34:17;18.00;46.80
10344;DHT22;5217;43.960;10.954;2023-04-06T11:36:47;18.30;46.70
10344;DHT22;5217;43.960;10.954;2023-04-06T11:39:19;18.50;44.90
10344;DHT22;5217;43.960;10.954;2023-04-06T11:41:48;18.70;44.60
10344;DHT22;5217;43.960;10.954;2023-04-06T11:44:29;18.90;43.90
10344;DHT22;5217;43.960;10.954;2023-04-06T11:47:00;19.20;43.20
10344;DHT22;5217;43.960;10.954;2023-04-06T11:49:30;19.50;42.80
10344;DHT22;5217;43.960;10.954;2023-04-06T11:52:00;19.80;43.00
10344;DHT22;5217;43.960;10.954;2023-04-06T11:54:32;20.10;42.60
10344;DHT22;5217;43.960;10.954;2023-04-06T11:57:01;20.40;42.80
10344;DHT22;5217;43.960;10.954;2023-04-06T11:59:32;20.70;44.00
10344;DHT22;5217;43.960;10.954;2023-04-06T12:02:01;21.00;44.40
10344;DHT22;5217;43.960;10.954;2023-04-06T12:04:30;21.40;43.60
10344;DHT22;5217;43.960;10.954;2023-04-06T12:06:59;21.60;43.10
10344;DHT22;5217;43.960;10.954;2023-04-06T12:09:28;21.70;41.80
10344;DHT22;5217;43.960;10.954;2023-04-06T12:11:56;21.90;41.80
10344;DHT22;5217;43.960;10.954;2023-04-06T12:14:25;22.20;41.50
10344;DHT22;5217;43.960;10.954;2023-04-06T12:16:55;22.50;41.70
10344;DHT22;5217;43.960;10.954;2023-04-06T12:19:23;22.60;41.40
10344;DHT22;5217;43.960;10.954;2023-04-06T12:21:53;22.80;40.20
10344;DHT22;5217;43.960;10.954;2023-04-06T12:24:21;23.00;39.80
10344;DHT22;5217;43.960;10.954;2023-04-06T12:26:50;23.30;39.60
10344;DHT22;5217;43.960;10.954;2023-04-06T12:29:29;23.50;39.10
10344;DHT22;5217;43.960;10.954;2023-04-06T12:31:59;23.60;39.00
10344;DHT22;5217;43.960;10.954;2023-04-06T12:34:29;23.80;38.40
10344;DHT22;5217;43.960;10.954;2023-04-06T12:36:57;23.90;38.70
10344;DHT22;5217;43.960;10.954;2023-04-06T12:39:27;23.90;38.00
10344;DHT22;5217;43.960;10.954;2023-04-06T12:41:56;24.00;37.70
10344;DHT22;5217;43.960;10.954;2023-04-06T12:44:24;24.30;37.40
10344;DHT22;5217;43.960;10.954;2023-04-06T12:46:53;24.50;36.50
10344;DHT22;5217;43.960;10.954;2023-04-06T12:49:24;24.70;36.90
10344;DHT22;5217;43.960;10.954;2023-04-06T12:51:52;25.00;36.90
10344;DHT22;5217;43.960;10.954;2023-04-06T12:54:21;25.30;37.20
10344;DHT22;5217;43.960;10.954;2023-04-06T12:56:49;25.60;38.00
10344;DHT22;5217;43.960;10.954;2023-04-06T12:59:18;25.90;37.50
10344;DHT22;5217;43.960;10.954;2023-04-06T13:01:48;26.10;37.20
10344;DHT22;5217;43.960;10.954;2023-04-06T13:04:16;26.30;36.00
10344;DHT22;5217;43.960;10.954;2023-04-06T13:06:46;26.40;35.30
10344;DHT22;5217;43.960;10.954;2023-04-06T13:09:14;26.60;35.30
10344;DHT22;5217;43.960;10.954;2023-04-06T13:11:43;26.80;35.30
10344;DHT22;5217;43.960;10.954;2023-04-06T13:14:14;27.10;35.30
10344;DHT22;5217;43.960;10.954;2023-04-06T13:16:46;27.40;34.60
10344;DHT22;5217;43.960;10.954;2023-04-06T13:19:14;27.50;33.10
10344;DHT22;5217;43.960;10.954;2023-04-06T13:21:43;27.70;33.00
10344;DHT22;5217;43.960;10.954;2023-04-06T13:24:13;27.80;33.30
10344;DHT22;5217;43.960;10.954;2023-04-06T13:26:43;28.00;33.30
10344;DHT22;5217;43.960;10.954;2023-04-06T13:29:12;28.30;33.50
10344;DHT22;5217;43.960;10.954;2023-04-06T13:31:40;28.50;33.10
10344;DHT22;5217;43.960;10.954;2023-04-06T13:34:09;28.70;32.70
10344;DHT22;5217;43.960;10.954;2023-04-06T13:36:37;28.90;31.70
10344;DHT22;5217;43.960;10.954;2023-04-06T13:39:08;28.90;31.20
10344;DHT22;5217;43.960;10.954;2023-04-06T13:41:38;29.00;31.00
10344;DHT22;5217;43.960;10.954;2023-04-06T13:44:07;28.90;31.30
10344;DHT22;5217;43.960;10.954;2023-04-06T13:46:35;29.00;31.40
10344;DHT22;5217;43.960;10.954;2023-04-06T13:49:04;29.20;30.70
10344;DHT22;5217;43.960;10.954;2023-04-06T13:51:33;29.40;30.90
10344;DHT22;5217;43.960;10.954;2023-04-06T13:54:01;29.60;31.80
10344;DHT22;5217;43.960;10.954;2023-04-06T13:56:29;29.80;31.50
10344;DHT22;5217;43.960;10.954;2023-04-06T13:59:00;29.80;30.20
10344;DHT22;5217;43.960;10.954;2023-04-06T14:01:28;30.00;30.00
10344;DHT22;5217;43.960;10.954;2023-04-06T14:03:57;30.10;30.00
10344;DHT22;5217;43.960;10.954;2023-04-06T14:06:25;30.30;30.10
10344;DHT22;5217;43.960;10.954;2023-04-06T14:08:58;30.40;30.60
10344;DHT22;5217;43.960;10.954;2023-04-06T14:11:26;30.60;31.10
10344;DHT22;5217;43.960;10.954;2023-04-06T14:13:55;30.80;30.10
10344;DHT22;5217;43.960;10.954;2023-04-06T14:16:26;30.80;29.90
10344;DHT22;5217;43.960;10.954;2023-04-06T14:18:54;30.70;29.90
10344;DHT22;5217;43.960;10.954;2023-04-06T14:21:24;30.70;30.30
10344;DHT22;5217;43.960;10.954;2023-04-06T14:23:53;30.60;30.60
10344;DHT22;5217;43.960;10.954;2023-04-06T14:26:25;30.60;30.90
10344;DHT22;5217;43.960;10.954;2023-04-06T14:28:54;30.70;30.80
10344;DHT22;5217;43.960;10.954;2023-04-06T14:31:22;30.80;31.00
10344;DHT22;5217;43.960;10.954;2023-04-06T14:33:53;30.80;30.40
10344;DHT22;5217;43.960;10.954;2023-04-06T14:36:21;30.70;31.00
10344;DHT22;5217;43.960;10.954;2023-04-06T14:38:50;30.60;30.40
10344;DHT22;5217;43.960;10.954;2023-04-06T14:41:22;30.70;30.70
10344;DHT22;5217;43.960;10.954;2023-04-06T14:43:51;30.70;30.60
10344;DHT22;5217;43.960;10.954;2023-04-06T14:46:20;30.80;30.90
10344;DHT22;5217;43.960;10.954;2023-04-06T14:48:48;30.90;30.40
10344;DHT22;5217;43.960;10.954;2023-04-06T14:51:19;30.90;30.40
10344;DHT22;5217;43.960;10.954;2023-04-06T14:53:47;30.90;30.00
10344;DHT22;5217;43.960;10.954;2023-04-06T14:56:19;31.00;30.00
10344;DHT22;5217;43.960;10.954;2023-04-06T14:58:48;31.10;29.90
10344;DHT22;5217;43.960;10.954;2023-04-06T15:01:18;31.00;30.20
10344;DHT22;5217;43.960;10.954;2023-04-06T15:03:47;31.00;30.10
10344;DHT22;5217;43.960;10.954;2023-04-06T15:06:19;31.00;30.20
10344;DHT22;5217;43.960;10.954;2023-04-06T15:08:49;31.20;30.20
10344;DHT22;5217;43.960;10.954;2023-04-06T15:11:17;31.30;30.60
10344;DHT22;5217;43.960;10.954;2023-04-06T15:13:46;31.40;30.20
10344;DHT22;5217;43.960;10.954;2023-04-06T15:16:14;31.40;30.40
10344;DHT22;5217;43.960;10.954;2023-04-06T15:18:43;31.40;30.40
10344;DHT22;5217;43.960;10.954;2023-04-06T15:21:11;31.40;29.70
10344;DHT22;5217;43.960;10.954;2023-04-06T15:23:41;31.30;29.20
10344;DHT22;5217;43.960;10.954;2023-04-06T15:26:09;31.20;29.50
10344;DHT22;5217;43.960;10.954;2023-04-06T15:28:38;31.00;30.00
10344;DHT22;5217;43.960;10.954;2023-04-06T15:31:13;30.90;29.70
10344;DHT22;5217;43.960;10.954;2023-04-06T15:33:59;30.50;29.80
10344;DHT22;5217;43.960;10.954;2023-04-06T15:36:28;30.10;30.80
10344;DHT22;5217;43.960;10.954;2023-04-06T15:38:59;29.90;30.80
10344;DHT22;5217;43.960;10.954;2023-04-06T15:41:27;29.80;31.00
10344;DHT22;5217;43.960;10.954;2023-04-06T15:43:56;29.70;31.00